Time;durP1;ratioP1;P1;durP2;ratioP2;P2;SDS_P1;SDS_P2;PMS_P1;PMS_P2;Temp;Humidity;BMP_temperature;BMP_pressure;BME280_temperature;BME280_humidity;BME280_pressure;Samples;Min_cycle;Max_cycle;Signal;HPM_P1;HPM_P2
2021/03/31 00:00:30;;;;;;;1999.90;999.90;;;12.40;66.10;;;;;;4833518;29;20718;-79
2021/03/31 00:03:01;;;;;;;1999.90;999.90;;;12.50;62.40;;;;;;4832782;29;20537;-78
2021/03/31 00:05:30;;;;;;;1999.90;999.90;;;12.40;65.80;;;;;;4833344;29;20684;-79
2021/03/31 00:07:56;;;;;;;1999.90;999.90;;;12.40;64.80;;;;;;4832507;29;20332;-79
2021/03/31 00:10:27;;;;;;;1999.90;999.90;;;12.40;67.30;;;;;;4832618;29;20208;-79
2021/03/31 00:12:53;;;;;;;1999.90;999.90;;;12.40;67.90;;;;;;4817021;29;20546;-79
2021/03/31 00:15:19;;;;;;;1999.90;999.90;;;12.40;67.40;;;;;;4832711;29;20169;-79
2021/03/31 00:17:44;;;;;;;1999.90;999.90;;;12.30;69.60;;;;;;4833401;29;20599;-79
2021/03/31 00:20:13;;;;;;;1999.90;999.90;;;12.20;75.30;;;;;;4816280;29;20436;-79
2021/03/31 00:22:39;;;;;;;1999.90;999.90;;;12.20;72.50;;;;;;4833120;29;20184;-79
2021/03/31 00:25:06;;;;;;;1999.90;999.90;;;12.40;73.70;;;;;;4832332;29;20515;-79
2021/03/31 00:27:31;;;;;;;1999.90;999.90;;;12.30;74.30;;;;;;4816368;29;20433;-79
2021/03/31 00:29:57;;;;;;;1999.90;999.90;;;12.40;72.90;;;;;;4831926;29;20265;-79
2021/03/31 00:32:25;;;;;;;1999.90;999.90;;;12.40;75.10;;;;;;4815974;29;20180;-79
2021/03/31 00:34:53;;;;;;;1999.90;999.90;;;12.30;75.50;;;;;;4815264;29;20173;-79
2021/03/31 00:37:19;;;;;;;1999.90;999.90;;;12.10;76.50;;;;;;4815317;29;20723;-79
2021/03/31 00:39:44;;;;;;;1999.90;999.90;;;12.00;81.00;;;;;;4829740;29;20188;-79
2021/03/31 00:42:10;;;;;;;1999.90;999.90;;;12.10;81.40;;;;;;4832276;29;20176;-79
2021/03/31 00:44:36;;;;;;;1999.90;999.90;;;12.10;81.60;;;;;;4832306;29;20173;-79
2021/03/31 00:47:02;;;;;;;1999.90;999.90;;;12.00;82.10;;;;;;4832412;29;20192;-79
2021/03/31 00:49:28;;;;;;;1999.90;999.90;;;11.90;88.30;;;;;;4815522;29;20189;-79
2021/03/31 00:51:54;;;;;;;1999.90;999.90;;;11.70;91.90;;;;;;4831600;29;20338;-79
2021/03/31 00:54:20;;;;;;;1999.90;999.90;;;11.70;93.00;;;;;;4815264;29;20653;-79
2021/03/31 00:56:45;;;;;;;1999.90;999.90;;;11.70;91.40;;;;;;4830881;29;20208;-79
2021/03/31 00:59:11;;;;;;;1999.90;999.90;;;11.70;91.80;;;;;;4831492;29;20602;-79
2021/03/31 01:01:37;;;;;;;1999.90;999.90;;;11.60;93.50;;;;;;4815064;29;20169;-78
2021/03/31 01:04:02;;;;;;;1999.90;999.90;;;11.60;92.70;;;;;;4832097;29;20196;-79
2021/03/31 01:06:29;;;;;;;1999.90;999.90;;;11.60;92.40;;;;;;4831423;29;20249;-78
2021/03/31 01:08:54;;;;;;;1999.90;999.90;;;11.50;92.60;;;;;;4831694;29;20430;-79
2021/03/31 01:11:34;;;;;;;1999.90;999.90;;;11.40;93.70;;;;;;4832346;29;20386;-79
2021/03/31 01:14:22;;;;;;;1999.90;999.90;;;11.40;93.80;;;;;;4830538;29;20578;-79
2021/03/31 01:16:52;;;;;;;1999.90;999.90;;;11.30;94.50;;;;;;4831285;29;20211;-78
2021/03/31 01:19:39;;;;;;;1999.90;999.90;;;11.20;95.10;;;;;;4832314;29;20251;-79
2021/03/31 01:22:26;;;;;;;1999.90;999.90;;;11.20;94.90;;;;;;4832192;29;20200;-79
2021/03/31 01:25:25;;;;;;;1999.90;999.90;;;11.30;93.80;;;;;;4831602;29;20156;-79
2021/03/31 01:27:54;;;;;;;1999.90;999.90;;;11.30;95.20;;;;;;4831543;29;20568;-79
2021/03/31 01:30:42;;;;;;;1999.90;999.90;;;11.20;95.20;;;;;;4831550;29;20180;-79
2021/03/31 01:33:32;;;;;;;1999.90;999.90;;;11.10;95.20;;;;;;4831330;29;20157;-78
2021/03/31 01:35:58;;;;;;;1999.90;999.90;;;11.10;96.90;;;;;;4831360;29;20184;-78
2021/03/31 01:38:26;;;;;;;1999.90;999.90;;;11.00;97.70;;;;;;4831027;29;20165;-79
2021/03/31 01:40:53;;;;;;;1999.90;999.90;;;10.90;98.50;;;;;;4831572;29;20173;-79
2021/03/31 01:43:22;;;;;;;1999.90;999.90;;;10.90;98.70;;;;;;4814684;29;20180;-79
2021/03/31 01:45:52;;;;;;;1999.90;999.90;;;10.80;99.30;;;;;;4831189;29;20251;-78
2021/03/31 01:48:21;;;;;;;1999.90;999.90;;;10.90;99.00;;;;;;4830783;29;20720;-79
2021/03/31 01:50:56;;;;;;;1999.90;999.90;;;11.00;98.40;;;;;;4831295;29;20235;-78
2021/03/31 01:53:23;;;;;;;1999.90;999.90;;;11.00;99.20;;;;;;4831664;29;20161;-78
2021/03/31 01:55:52;;;;;;;1999.90;999.90;;;11.00;97.80;;;;;;4831313;29;20169;-78
2021/03/31 01:58:18;;;;;;;1999.90;999.90;;;11.10;97.00;;;;;;4815169;29;20200;-78
2021/03/31 02:00:48;;;;;;;1999.90;999.90;;;11.00;97.50;;;;;;4831667;29;20518;-79
2021/03/31 02:03:17;;;;;;;1999.90;999.90;;;11.00;98.40;;;;;;4815523;29;20641;-79
2021/03/31 02:05:44;;;;;;;1999.90;999.90;;;11.00;98.20;;;;;;4832224;29;20180;-79
2021/03/31 02:08:11;;;;;;;1999.90;999.90;;;11.00;97.60;;;;;;4832262;29;20249;-79
2021/03/31 02:10:38;;;;;;;1999.90;999.90;;;11.00;97.70;;;;;;4832114;29;20169;-79
2021/03/31 02:13:05;;;;;;;1999.90;999.90;;;10.90;98.50;;;;;;4831277;29;20649;-79
2021/03/31 02:15:31;;;;;;;1999.90;999.90;;;10.70;99.60;;;;;;4815258;29;20285;-79
2021/03/31 02:17:59;;;;;;;1999.90;999.90;;;10.70;99.80;;;;;;4831802;29;20322;-79
2021/03/31 02:20:26;;;;;;;1999.90;999.90;;;10.60;99.90;;;;;;4832345;29;20183;-78
2021/03/31 02:22:52;;;;;;;1999.90;999.90;;;10.40;99.90;;;;;;4831603;29;20637;-79
2021/03/31 02:25:20;;;;;;;1999.90;999.90;;;10.50;99.90;;;;;;4831898;29;20173;-79
2021/03/31 02:27:46;;;;;;;1999.90;999.90;;;10.50;99.90;;;;;;4830394;29;20201;-79
2021/03/31 02:30:15;;;;;;;1999.90;999.90;;;10.70;99.90;;;;;;4830948;29;20177;-78
2021/03/31 02:32:45;;;;;;;1999.90;999.90;;;10.60;99.90;;;;;;4830871;29;20173;-78
2021/03/31 02:35:13;;;;;;;1999.90;999.90;;;10.60;99.90;;;;;;4830392;29;20225;-79
2021/03/31 02:37:40;;;;;;;1999.90;999.90;;;10.60;99.90;;;;;;4830770;29;20211;-78
2021/03/31 02:40:09;;;;;;;1999.90;999.90;;;10.60;99.90;;;;;;4830138;29;20197;-78
2021/03/31 02:42:36;;;;;;;1999.90;999.90;;;10.50;99.90;;;;;;4831277;29;20562;-79
2021/03/31 02:45:03;;;;;;;1999.90;999.90;;;10.50;99.90;;;;;;4831395;29;20172;-79
2021/03/31 02:47:30;;;;;;;1999.90;999.90;;;10.40;99.90;;;;;;4830579;29;20211;-78
2021/03/31 02:50:03;;;;;;;1999.90;999.90;;;10.50;99.90;;;;;;4830498;29;20185;-78
2021/03/31 02:52:30;;;;;;;1999.90;999.90;;;10.40;99.90;;;;;;4831120;29;20175;-78
2021/03/31 02:54:57;;;;;;;1999.90;999.90;;;10.40;99.90;;;;;;4831058;29;20180;-78
2021/03/31 02:57:23;;;;;;;1999.90;999.90;;;10.40;99.90;;;;;;4813759;29;20208;-78
2021/03/31 02:59:50;;;;;;;1999.90;999.90;;;10.40;99.90;;;;;;4831104;29;20180;-79
2021/03/31 03:02:19;;;;;;;1999.90;999.90;;;10.40;99.90;;;;;;4813772;29;20177;-79
2021/03/31 03:04:48;;;;;;;1999.90;999.90;;;10.30;99.90;;;;;;4814068;29;20177;-79
2021/03/31 03:07:14;;;;;;;1999.90;999.90;;;10.20;99.90;;;;;;4814295;29;20707;-79
2021/03/31 03:09:41;;;;;;;1999.90;999.90;;;10.30;99.90;;;;;;4813573;29;20191;-79
2021/03/31 03:12:11;;;;;;;1999.90;999.90;;;10.20;99.90;;;;;;4830609;29;20177;-79
2021/03/31 03:14:38;;;;;;;1999.90;999.90;;;10.30;99.90;;;;;;4813655;29;20181;-78
2021/03/31 03:17:04;;;;;;;1999.90;999.90;;;10.40;99.90;;;;;;4814255;29;20208;-79
2021/03/31 03:19:29;;;;;;;1999.90;999.90;;;10.50;99.90;;;;;;4830266;29;20201;-79
2021/03/31 03:21:55;;;;;;;1999.90;999.90;;;10.40;99.90;;;;;;4814186;29;20180;-79
2021/03/31 03:24:23;;;;;;;1999.90;999.90;;;10.40;99.90;;;;;;4830465;29;20259;-78
2021/03/31 03:26:49;;;;;;;1999.90;999.90;;;10.30;99.90;;;;;;4829526;29;20702;-78
2021/03/31 03:29:17;;;;;;;1999.90;999.90;;;10.10;99.90;;;;;;4830578;29;20211;-78
2021/03/31 03:31:46;;;;;;;1999.90;999.90;;;10.10;99.90;;;;;;4830171;29;20418;-79
2021/03/31 03:34:12;;;;;;;1999.90;999.90;;;10.10;99.90;;;;;;4830107;29;20208;-79
2021/03/31 03:36:42;;;;;;;1999.90;999.90;;;9.90;99.90;;;;;;4831659;29;20257;-79
2021/03/31 03:39:08;;;;;;;1999.90;999.90;;;10.00;99.90;;;;;;4833376;29;20168;-79
2021/03/31 03:41:34;;;;;;;1999.90;999.90;;;10.00;99.90;;;;;;4834014;29;20251;-79
2021/03/31 03:44:00;;;;;;;1999.90;999.90;;;10.10;99.90;;;;;;4833043;29;20483;-78
2021/03/31 03:46:32;;;;;;;1999.90;999.90;;;9.90;99.90;;;;;;4833190;29;20201;-79
2021/03/31 03:48:59;;;;;;;1999.90;999.90;;;10.00;99.90;;;;;;4833552;29;20661;-79
2021/03/31 03:51:25;;;;;;;1999.90;999.90;;;9.90;99.90;;;;;;4833038;29;20172;-79
2021/03/31 03:53:53;;;;;;;1999.90;999.90;;;9.90;99.90;;;;;;4833458;29;20176;-79
2021/03/31 03:56:19;;;;;;;1999.90;999.90;;;9.80;99.90;;;;;;4833704;29;20200;-78
2021/03/31 03:58:45;;;;;;;1999.90;999.90;;;9.70;99.90;;;;;;4834140;29;20255;-79
2021/03/31 04:01:11;;;;;;;1999.90;999.90;;;9.70;99.90;;;;;;4833712;29;20192;-80
2021/03/31 04:03:37;;;;;;;1999.90;999.90;;;9.70;99.90;;;;;;4833170;29;20251;-78
2021/03/31 04:06:02;;;;;;;1999.90;999.90;;;9.70;99.90;;;;;;4833665;29;20429;-78
2021/03/31 04:08:28;;;;;;;1999.90;999.90;;;9.70;99.90;;;;;;4834144;29;20205;-78
2021/03/31 04:10:57;;;;;;;1999.90;999.90;;;9.70;99.90;;;;;;4831320;29;20417;-79
2021/03/31 04:13:24;;;;;;;1999.90;999.90;;;9.70;99.90;;;;;;4830963;29;20173;-79
2021/03/31 04:16:04;;;;;;;1999.90;999.90;;;9.70;99.90;;;;;;4814559;29;20180;-80
2021/03/31 04:18:31;;;;;;;1999.90;999.90;;;9.60;99.90;;;;;;4830912;29;20170;-79
2021/03/31 04:20:59;;;;;;;1999.90;999.90;;;9.50;99.90;;;;;;4830369;29;20165;-78
2021/03/31 04:23:25;;;;;;;1999.90;999.90;;;9.40;99.90;;;;;;4830798;29;20173;-78
2021/03/31 04:25:52;;;;;;;1999.90;999.90;;;9.30;99.90;;;;;;4831986;29;20563;-78
2021/03/31 04:28:20;;;;;;;1999.90;999.90;;;9.20;99.90;;;;;;4832237;29;20675;-79
2021/03/31 04:30:46;;;;;;;1999.90;999.90;;;9.30;99.90;;;;;;4832615;29;20544;-79
2021/03/31 04:33:14;;;;;;;1999.90;999.90;;;9.30;99.90;;;;;;4832358;29;20168;-79
2021/03/31 04:35:40;;;;;;;1999.90;999.90;;;9.20;99.90;;;;;;4832517;29;20438;-79
2021/03/31 04:38:07;;;;;;;1999.90;999.90;;;9.20;99.90;;;;;;4832628;29;20565;-79
2021/03/31 04:40:42;;;;;;;1999.90;999.90;;;9.20;99.90;;;;;;4831237;29;20168;-78
2021/03/31 04:43:08;;;;;;;1999.90;999.90;;;9.20;99.90;;;;;;4832027;29;20149;-78
2021/03/31 04:45:33;;;;;;;1999.90;999.90;;;9.20;99.90;;;;;;4831447;29;20183;-78
2021/03/31 04:47:59;;;;;;;1999.90;999.90;;;9.20;99.90;;;;;;4831979;29;20213;-79
2021/03/31 04:50:25;;;;;;;1999.90;999.90;;;9.20;99.90;;;;;;4832056;29;20169;-79
2021/03/31 04:52:50;;;;;;;1999.90;999.90;;;9.30;99.90;;;;;;4831819;29;20181;-79
2021/03/31 04:55:16;;;;;;;1999.90;999.90;;;9.40;99.90;;;;;;4831269;29;20668;-79
2021/03/31 04:57:42;;;;;;;1999.90;999.90;;;9.30;99.90;;;;;;4813936;29;20212;-79
2021/03/31 05:00:08;;;;;;;1999.90;999.90;;;9.30;99.90;;;;;;4814273;29;20180;-79
2021/03/31 05:02:34;;;;;;;1999.90;999.90;;;9.30;99.90;;;;;;4830915;29;20185;-79
2021/03/31 05:04:59;;;;;;;1999.90;999.90;;;9.20;99.90;;;;;;4831261;29;20165;-79
2021/03/31 05:07:25;;;;;;;1999.90;999.90;;;9.10;99.90;;;;;;4814812;29;20636;-79
2021/03/31 05:09:50;;;;;;;1999.90;999.90;;;9.20;99.90;;;;;;4831006;29;20583;-79
2021/03/31 05:12:17;;;;;;;1999.90;999.90;;;9.20;99.90;;;;;;4831678;29;20211;-78
2021/03/31 05:14:42;;;;;;;1999.90;999.90;;;9.20;99.90;;;;;;4815047;29;20176;-79
2021/03/31 05:17:08;;;;;;;1999.90;999.90;;;9.20;99.90;;;;;;4830982;29;20217;-79
2021/03/31 05:19:34;;;;;;;1999.90;999.90;;;9.20;99.90;;;;;;4831108;29;20168;-78
2021/03/31 05:21:59;;;;;;;1999.90;999.90;;;9.20;99.90;;;;;;4830057;29;20203;-79
2021/03/31 05:24:25;;;;;;;1999.90;999.90;;;9.20;99.90;;;;;;4830929;29;20180;-79
2021/03/31 05:26:51;;;;;;;1999.90;999.90;;;9.20;99.90;;;;;;4831006;29;20207;-79
2021/03/31 05:29:18;;;;;;;1999.90;999.90;;;9.10;99.90;;;;;;4830047;29;20252;-78
2021/03/31 05:31:44;;;;;;;1999.90;999.90;;;9.10;99.90;;;;;;4829380;29;20237;-78
2021/03/31 05:34:09;;;;;;;1999.90;999.90;;;9.20;99.90;;;;;;4829850;29;20172;-79
2021/03/31 05:36:35;;;;;;;1999.90;999.90;;;9.20;99.90;;;;;;4829663;29;20204;-79
2021/03/31 05:39:01;;;;;;;1999.90;999.90;;;9.10;99.90;;;;;;4829303;29;20173;-79
2021/03/31 05:41:27;;;;;;;1999.90;999.90;;;9.10;99.90;;;;;;4829413;29;20177;-79
2021/03/31 05:43:53;;;;;;;1999.90;999.90;;;9.10;99.90;;;;;;4813776;29;20176;-79
2021/03/31 05:46:21;;;;;;;1999.90;999.90;;;9.10;99.90;;;;;;4829723;29;20576;-79
2021/03/31 05:48:47;;;;;;;1999.90;999.90;;;9.00;99.90;;;;;;4812871;29;20230;-79
2021/03/31 05:51:13;;;;;;;1999.90;999.90;;;9.00;99.90;;;;;;4829859;29;20228;-79
2021/03/31 05:53:39;;;;;;;1999.90;999.90;;;9.10;99.90;;;;;;4830207;29;20173;-79
2021/03/31 05:56:08;;;;;;;1999.90;999.90;;;9.20;99.90;;;;;;4829947;29;20279;-78
2021/03/31 05:58:34;;;;;;;1999.90;999.90;;;9.20;99.90;;;;;;4830022;29;20234;-79
2021/03/31 06:01:03;;;;;;;1999.90;999.90;;;9.20;99.90;;;;;;4829944;29;20226;-79
2021/03/31 06:03:30;;;;;;;1999.90;999.90;;;9.30;99.90;;;;;;4829058;29;20168;-79
2021/03/31 06:05:56;;;;;;;1999.90;999.90;;;9.30;99.90;;;;;;4812381;29;20507;-79
2021/03/31 06:08:22;;;;;;;1999.90;999.90;;;9.20;99.90;;;;;;4829004;29;20175;-79
2021/03/31 06:10:56;;;;;;;1999.90;999.90;;;9.30;99.90;;;;;;4828858;29;20221;-79
2021/03/31 06:13:22;;;;;;;1999.90;999.90;;;9.20;99.90;;;;;;4829782;29;20246;-79
2021/03/31 06:15:51;;;;;;;1999.90;999.90;;;9.30;99.90;;;;;;4830762;29;20188;-78
2021/03/31 06:18:18;;;;;;;1999.90;999.90;;;9.30;99.90;;;;;;4830442;29;20470;-79
2021/03/31 06:20:58;;;;;;;1999.90;999.90;;;9.40;99.90;;;;;;4829380;29;20533;-79
2021/03/31 06:23:48;;;;;;;1999.90;999.90;;;9.40;99.90;;;;;;4829179;29;20168;-79
2021/03/31 06:26:16;;;;;;;1999.90;999.90;;;9.50;99.90;;;;;;4830164;29;20202;-79
2021/03/31 06:28:53;;;;;;;1999.90;999.90;;;9.50;99.90;;;;;;4829978;29;20267;-79
2021/03/31 06:31:26;;;;;;;1999.90;999.90;;;9.60;99.90;;;;;;4813258;29;20167;-79
2021/03/31 06:33:52;;;;;;;1999.90;999.90;;;9.60;99.90;;;;;;4829409;29;20190;-79
2021/03/31 06:36:31;;;;;;;1999.90;999.90;;;9.60;99.90;;;;;;4830679;29;20236;-78
2021/03/31 06:38:57;;;;;;;1999.90;999.90;;;9.70;99.90;;;;;;4813595;29;20255;-79
2021/03/31 06:41:33;;;;;;;1999.90;999.90;;;9.80;99.90;;;;;;4830011;29;20718;-79
2021/03/31 06:44:10;;;;;;;1999.90;999.90;;;9.90;99.90;;;;;;4829854;29;20145;-79
2021/03/31 06:49:28;;;;;;;1999.90;999.90;;;10.00;99.90;;;;;;4828110;29;20204;-79
2021/03/31 06:52:09;;;;;;;1999.90;999.90;;;10.00;99.90;;;;;;4830157;29;20201;-79
2021/03/31 06:54:54;;;;;;;1999.90;999.90;;;10.10;99.90;;;;;;4829517;29;20477;-79
2021/03/31 06:57:38;;;;;;;1999.90;999.90;;;10.20;99.90;;;;;;4813283;29;20611;-78
2021/03/31 07:00:08;;;;;;;1999.90;999.90;;;10.30;99.90;;;;;;4829799;29;20157;-79
2021/03/31 07:02:35;;;;;;;1999.90;999.90;;;10.40;99.90;;;;;;4813982;29;20221;-79
2021/03/31 07:05:01;;;;;;;1999.90;999.90;;;10.50;99.90;;;;;;4830322;29;20241;-79
2021/03/31 07:07:41;;;;;;;1999.90;999.90;;;10.50;99.90;;;;;;4829604;29;20192;-79
2021/03/31 07:10:14;;;;;;;1999.90;999.90;;;10.60;99.90;;;;;;4831357;29;20173;-79
2021/03/31 07:12:51;;;;;;;1999.90;999.90;;;10.70;99.90;;;;;;4817661;29;20165;-79
2021/03/31 07:15:25;;;;;;;1999.90;999.90;;;10.80;99.90;;;;;;4834103;29;20164;-79
2021/03/31 07:17:54;;;;;;;1999.90;999.90;;;10.90;99.90;;;;;;4833768;29;20572;-79
2021/03/31 07:20:21;;;;;;;1999.90;999.90;;;10.90;99.90;;;;;;4833608;29;20169;-79
2021/03/31 07:22:52;;;;;;;1999.90;999.90;;;11.00;99.90;;;;;;4833277;29;20164;-80
2021/03/31 07:25:18;;;;;;;1999.90;999.90;;;11.10;99.90;;;;;;4833256;29;20674;-79
2021/03/31 07:27:47;;;;;;;1999.90;999.90;;;11.20;99.90;;;;;;4833148;29;20227;-78
2021/03/31 07:30:17;;;;;;;1999.90;999.90;;;11.30;99.90;;;;;;4832586;29;20261;-78
2021/03/31 07:32:54;;;;;;;1999.90;999.90;;;11.40;99.90;;;;;;4832596;29;20172;-78
2021/03/31 07:35:21;;;;;;;1999.90;999.90;;;11.50;99.90;;;;;;4832509;29;20161;-78
2021/03/31 07:37:48;;;;;;;1999.90;999.90;;;11.60;99.90;;;;;;4832275;29;20252;-79
2021/03/31 07:40:19;;;;;;;1999.90;999.90;;;11.80;99.90;;;;;;4833079;29;20584;-79
2021/03/31 07:42:47;;;;;;;1999.90;999.90;;;11.90;99.90;;;;;;4816269;29;20676;-78
2021/03/31 07:45:16;;;;;;;1999.90;999.90;;;11.90;99.90;;;;;;4832008;29;20228;-78
2021/03/31 07:47:44;;;;;;;1999.90;999.90;;;12.10;99.90;;;;;;4816080;29;20204;-78
2021/03/31 07:50:10;;;;;;;1999.90;999.90;;;12.10;99.90;;;;;;4832026;29;20173;-78
2021/03/31 07:52:58;;;;;;;1999.90;999.90;;;12.20;99.90;;;;;;4815855;29;20187;-78
2021/03/31 07:55:43;;;;;;;1999.90;999.90;;;12.30;99.70;;;;;;4832000;29;20157;-78
2021/03/31 07:58:20;;;;;;;1999.90;999.90;;;12.50;99.00;;;;;;4815590;29;20266;-79
2021/03/31 08:03:14;;;;;;;1999.90;999.90;;;12.60;97.70;;;;;;4832407;29;20630;-78
2021/03/31 08:06:15;;;;;;;1999.90;999.90;;;12.70;98.30;;;;;;4831996;29;20675;-79
2021/03/31 08:08:50;;;;;;;1999.90;999.90;;;12.80;96.90;;;;;;4832237;29;20182;-79
2021/03/31 08:11:54;;;;;;;1999.90;999.90;;;12.90;96.50;;;;;;4832230;29;20176;-78
2021/03/31 08:14:34;;;;;;;1999.90;999.90;;;13.00;95.60;;;;;;4833007;29;20194;-78
2021/03/31 08:17:09;;;;;;;1999.90;999.90;;;13.20;95.60;;;;;;4816521;29;20211;-78
2021/03/31 08:19:39;;;;;;;1999.90;999.90;;;13.30;94.90;;;;;;4831947;29;20209;-78
2021/03/31 08:22:24;;;;;;;1999.90;999.90;;;13.40;94.40;;;;;;4832172;29;20563;-78
2021/03/31 08:24:55;;;;;;;1999.90;999.90;;;13.50;93.50;;;;;;4815338;29;20179;-79
2021/03/31 08:27:22;;;;;;;1999.90;999.90;;;13.50;93.20;;;;;;4831084;29;20311;-78
2021/03/31 08:29:54;;;;;;;1999.90;999.90;;;13.70;93.70;;;;;;4815156;29;20244;-79
2021/03/31 08:32:22;;;;;;;1999.90;999.90;;;13.90;92.00;;;;;;4831985;29;20310;-78
2021/03/31 08:34:48;;;;;;;1999.90;999.90;;;14.00;90.30;;;;;;4800733;29;20176;-78
2021/03/31 08:37:23;;;;;;;1999.90;999.90;;;14.20;88.70;;;;;;4831303;29;20200;-78
2021/03/31 08:39:49;;;;;;;1999.90;999.90;;;14.30;88.60;;;;;;4815719;29;20232;-78
2021/03/31 08:42:15;;;;;;;1999.90;999.90;;;14.40;88.20;;;;;;4830892;29;20172;-79
2021/03/31 08:44:47;;;;;;;1999.90;999.90;;;14.40;88.50;;;;;;4831470;29;20259;-78
2021/03/31 08:47:22;;;;;;;1999.90;999.90;;;14.50;86.90;;;;;;4832056;29;20193;-78
2021/03/31 08:49:50;;;;;;;1999.90;999.90;;;14.60;87.30;;;;;;4814506;29;20691;-78
2021/03/31 08:52:20;;;;;;;1999.90;999.90;;;14.80;85.00;;;;;;4831513;29;20545;-78
2021/03/31 08:54:53;;;;;;;1999.90;999.90;;;15.00;79.60;;;;;;4831255;29;20426;-78
2021/03/31 08:57:25;;;;;;;1999.90;999.90;;;15.20;70.40;;;;;;4815293;29;20577;-78
2021/03/31 08:59:59;;;;;;;1999.90;999.90;;;15.20;76.30;;;;;;4815390;29;20450;-78
2021/03/31 09:02:31;;;;;;;1999.90;999.90;;;15.30;66.70;;;;;;4816195;29;20417;-79
2021/03/31 09:04:58;;;;;;;1999.90;999.90;;;15.50;66.60;;;;;;4832689;29;20805;-78
2021/03/31 09:07:25;;;;;;;1999.90;999.90;;;15.60;65.00;;;;;;4832415;29;20892;-79
2021/03/31 09:09:54;;;;;;;1999.90;999.90;;;15.70;64.20;;;;;;4833366;29;20820;-79
2021/03/31 09:12:25;;;;;;;1999.90;999.90;;;15.90;57.40;;;;;;4832575;29;20497;-79
2021/03/31 09:15:00;;;;;;;1999.90;999.90;;;15.90;52.50;;;;;;4831948;29;20408;-78
2021/03/31 09:17:28;;;;;;;1999.90;999.90;;;16.10;50.10;;;;;;4815509;29;20457;-78
2021/03/31 09:19:59;;;;;;;1999.90;999.90;;;16.30;50.70;;;;;;4831896;29;20477;-78
2021/03/31 09:22:30;;;;;;;1999.90;999.90;;;16.40;48.20;;;;;;4831345;29;20402;-78
2021/03/31 09:25:01;;;;;;;1999.90;999.90;;;16.40;46.20;;;;;;4815917;29;20451;-79
2021/03/31 09:27:29;;;;;;;1999.90;999.90;;;16.40;51.00;;;;;;4814982;29;20441;-78
2021/03/31 09:29:58;;;;;;;1999.90;999.90;;;16.50;44.10;;;;;;4832020;29;20828;-78
2021/03/31 09:32:36;;;;;;;1999.90;999.90;;;16.70;38.70;;;;;;4831960;29;20463;-79
2021/03/31 09:35:13;;;;;;;1999.90;999.90;;;16.70;40.40;;;;;;4831558;29;20433;-79
2021/03/31 09:37:47;;;;;;;1999.90;999.90;;;17.00;35.90;;;;;;4814772;29;20533;-78
2021/03/31 09:40:47;;;;;;;1999.90;999.90;;;17.00;32.70;;;;;;4831410;29;20437;-78
2021/03/31 09:43:13;;;;;;;1999.90;999.90;;;17.20;30.90;;;;;;4831465;29;20394;-79
2021/03/31 09:45:39;;;;;;;1999.90;999.90;;;17.40;30.70;;;;;;4832079;29;20445;-78
2021/03/31 09:48:06;;;;;;;1999.90;999.90;;;17.50;29.80;;;;;;4832050;29;20955;-79
2021/03/31 09:50:35;;;;;;;1999.90;999.90;;;17.60;26.80;;;;;;4832516;29;20424;-78
2021/03/31 09:53:04;;;;;;;1999.90;999.90;;;17.80;23.40;;;;;;4831183;29;20482;-79
2021/03/31 09:55:30;;;;;;;1999.90;999.90;;;18.10;23.00;;;;;;4831977;29;20426;-78
2021/03/31 09:57:56;;;;;;;1999.90;999.90;;;18.10;21.00;;;;;;4831589;29;20459;-79
2021/03/31 10:00:25;;;;;;;1999.90;999.90;;;18.20;21.40;;;;;;4831289;29;20416;-79
2021/03/31 10:02:52;;;;;;;1999.90;999.90;;;18.40;17.30;;;;;;4831891;29;20415;-79
2021/03/31 10:05:19;;;;;;;1999.90;999.90;;;18.60;13.90;;;;;;4832056;29;20418;-78
2021/03/31 10:08:21;;;;;;;1999.90;999.90;;;18.80;14.90;;;;;;4831249;29;20436;-78
2021/03/31 10:10:52;;;;;;;1999.90;999.90;;;18.90;11.20;;;;;;4787098;29;20424;-78
2021/03/31 10:13:20;;;;;;;1999.90;999.90;;;19.10;10.70;;;;;;4831657;29;20406;-78
2021/03/31 10:15:56;;;;;;;1999.90;999.90;;;19.20;9.70;;;;;;4831135;29;20414;-78
2021/03/31 10:18:22;;;;;;;1999.90;999.90;;;19.40;8.10;;;;;;4830873;29;20435;-79
2021/03/31 10:20:49;;;;;;;1999.90;999.90;;;19.50;4.70;;;;;;4830789;29;20922;-78
2021/03/31 10:23:31;;;;;;;1999.90;999.90;;;19.70;2.20;;;;;;4830684;29;20405;-78
2021/03/31 10:26:31;;;;;;;1999.90;999.90;;;19.90;2.80;;;;;;4830749;29;20743;-78
2021/03/31 10:29:03;;;;;;;1999.90;999.90;;;20.30;3.90;;;;;;4785591;29;20425;-79
2021/03/31 10:31:31;;;;;;;1999.90;999.90;;;20.30;1.00;;;;;;4830975;29;20410;-79
2021/03/31 10:33:57;;;;;;;1999.90;999.90;;;20.40;1.00;;;;;;4831687;29;20406;-78
2021/03/31 10:36:57;;;;;;;1999.90;999.90;;;20.60;1.00;;;;;;4830908;29;20458;-78
2021/03/31 10:50:15;;;;;;;1999.90;999.90;;;21.50;1.00;;;;;;4802625;29;20430;-78
2021/03/31 10:52:51;;;;;;;1999.90;999.90;;;21.80;1.00;;;;;;4830790;29;20422;-79
2021/03/31 10:55:16;;;;;;;1999.90;999.90;;;22.00;1.00;;;;;;4830382;29;20426;-78
2021/03/31 10:57:42;;;;;;;1999.90;999.90;;;22.00;1.00;;;;;;4830512;29;20474;-78
2021/03/31 11:00:08;;;;;;;1999.90;999.90;;;22.10;1.00;;;;;;4831120;29;20178;-79
2021/03/31 11:02:34;;;;;;;1999.90;999.90;;;22.20;1.00;;;;;;4829363;29;20196;-79
2021/03/31 11:04:59;;;;;;;1999.90;999.90;;;22.00;1.00;;;;;;4830073;29;20418;-79
2021/03/31 11:07:25;;;;;;;1999.90;999.90;;;22.00;1.00;;;;;;4830444;29;20194;-79
2021/03/31 11:09:51;;;;;;;1999.90;999.90;;;22.10;1.00;;;;;;4829627;29;20166;-79
2021/03/31 11:12:16;;;;;;;1999.90;999.90;;;22.30;1.00;;;;;;4830167;29;20183;-79
2021/03/31 11:14:42;;;;;;;1999.90;999.90;;;22.60;1.00;;;;;;4830247;29;20180;-79
2021/03/31 11:17:18;;;;;;;1999.90;999.90;;;22.90;1.00;;;;;;4830201;29;20218;-79
2021/03/31 11:27:56;;;;;;;1999.90;999.90;;;23.30;1.00;;;;;;4831658;29;20462;-79
2021/03/31 11:30:22;;;;;;;1999.90;999.90;;;23.50;1.00;;;;;;4831151;29;20422;-79
2021/03/31 11:32:48;;;;;;;1999.90;999.90;;;23.80;1.00;;;;;;4830589;29;20187;-80
2021/03/31 11:35:13;;;;;;;1999.90;999.90;;;23.80;1.00;;;;;;4829505;29;20177;-79
2021/03/31 11:37:39;;;;;;;1999.90;999.90;;;23.70;1.00;;;;;;4830109;29;20216;-79
2021/03/31 11:40:06;;;;;;;1999.90;999.90;;;23.50;1.00;;;;;;4830609;29;20301;-79
2021/03/31 11:42:32;;;;;;;1999.90;999.90;;;23.50;1.00;;;;;;4814520;29;20203;-79
2021/03/31 11:44:57;;;;;;;1999.90;999.90;;;23.60;1.00;;;;;;4830620;29;20492;-79
2021/03/31 11:47:23;;;;;;;1999.90;999.90;;;23.70;1.00;;;;;;4830370;29;20196;-79
2021/03/31 11:49:49;;;;;;;1999.90;999.90;;;23.90;1.00;;;;;;4813452;29;20267;-79
2021/03/31 11:52:15;;;;;;;1999.90;999.90;;;23.50;1.00;;;;;;4829985;29;20187;-79
2021/03/31 11:54:41;;;;;;;1999.90;999.90;;;23.60;1.00;;;;;;4813718;29;20181;-79
2021/03/31 11:57:06;;;;;;;1999.90;999.90;;;23.60;1.00;;;;;;4830049;29;20462;-79
2021/03/31 11:59:32;;;;;;;1999.90;999.90;;;23.70;1.00;;;;;;4833191;29;20169;-79
2021/03/31 12:01:58;;;;;;;1999.90;999.90;;;23.50;1.00;;;;;;4834262;29;20239;-79
2021/03/31 12:04:23;;;;;;;1999.90;999.90;;;23.90;1.00;;;;;;4837829;29;20649;-78
2021/03/31 12:06:49;;;;;;;1999.90;999.90;;;24.00;1.00;;;;;;4837899;29;20228;-80
2021/03/31 12:09:15;;;;;;;1999.90;999.90;;;24.00;1.00;;;;;;4818917;29;20180;-80
2021/03/31 12:11:41;;;;;;;1999.90;999.90;;;24.00;1.00;;;;;;4834490;29;20172;-80
2021/03/31 12:14:06;;;;;;;1999.90;999.90;;;24.20;1.00;;;;;;4833638;29;20188;-80
2021/03/31 12:16:32;;;;;;;1999.90;999.90;;;24.50;1.00;;;;;;4833878;29;20209;-80
2021/03/31 12:18:58;;;;;;;1999.90;999.90;;;24.60;1.00;;;;;;4817536;29;20587;-80
2021/03/31 12:21:23;;;;;;;1999.90;999.90;;;24.70;1.00;;;;;;4834491;29;20169;-80
2021/03/31 12:23:49;;;;;;;1999.90;999.90;;;24.70;1.00;;;;;;4834252;29;20176;-80
2021/03/31 12:26:16;;;;;;;1999.90;999.90;;;24.70;1.00;;;;;;4832853;29;20276;-80
2021/03/31 12:28:49;;;;;;;1999.90;999.90;;;24.50;1.00;;;;;;4833601;29;20233;-80
2021/03/31 12:31:15;;;;;;;1999.90;999.90;;;24.50;1.00;;;;;;4833940;29;20398;-80
2021/03/31 12:33:41;;;;;;;1999.90;999.90;;;24.70;1.00;;;;;;4833766;29;20418;-80
2021/03/31 12:36:07;;;;;;;1999.90;999.90;;;24.80;1.00;;;;;;4833739;29;20942;-80
2021/03/31 12:38:33;;;;;;;1999.90;999.90;;;24.60;1.00;;;;;;4832860;29;20173;-80